sensor_id;sensor_type;location;lat;lon;timestamp;pressure;altitude;pressure_sealevel;temperature;humidity
47935;BME280;33704;43.592;-79.628;2024-02-21T00:00:20;100828.69;;;35.67;20.60
47935;BME280;33704;43.592;-79.628;2024-02-21T00:00:57;100829.37;;;35.65;20.75
47935;BME280;33704;43.592;-79.628;2024-02-21T00:01:29;100827.79;;;35.71;20.51
47935;BME280;33704;43.592;-79.628;2024-02-21T00:02:02;100826.26;;;35.75;20.56
47935;BME280;33704;43.592;-79.628;2024-02-21T00:02:34;100824.04;;;35.78;20.64
47935;BME280;33704;43.592;-79.628;2024-02-21T00:03:06;100822.33;;;35.79;20.44
47935;BME280;33704;43.592;-79.628;2024-02-21T00:03:37;100823.41;;;35.76;20.72
47935;BME280;33704;43.592;-79.628;2024-02-21T00:04:09;100821.21;;;35.76;20.65
47935;BME280;33704;43.592;-79.628;2024-02-21T00:04:43;100822.98;;;35.79;20.30
47935;BME280;33704;43.592;-79.628;2024-02-21T00:05:15;100821.98;;;35.80;20.36
47935;BME280;33704;43.592;-79.628;2024-02-21T00:05:47;100820.73;;;35.85;20.39
47935;BME280;33704;43.592;-79.628;2024-02-21T00:06:19;100819.12;;;35.92;20.30
47935;BME280;33704;43.592;-79.628;2024-02-21T00:06:51;100819.06;;;35.85;20.31
47935;BME280;33704;43.592;-79.628;2024-02-21T00:07:23;100819.90;;;35.84;20.31
47935;BME280;33704;43.592;-79.628;2024-02-21T00:07:55;100819.34;;;35.85;20.33
47935;BME280;33704;43.592;-79.628;2024-02-21T00:08:27;100818.13;;;35.85;20.40
47935;BME280;33704;43.592;-79.628;2024-02-21T00:08:59;100818.60;;;35.88;20.35
47935;BME280;33704;43.592;-79.628;2024-02-21T00:09:31;100817.93;;;35.88;20.42
47935;BME280;33704;43.592;-79.628;2024-02-21T00:10:04;100817.52;;;35.87;20.29
47935;BME280;33704;43.592;-79.628;2024-02-21T00:10:36;100817.87;;;35.89;20.03
47935;BME280;33704;43.592;-79.628;2024-02-21T00:11:08;100819.20;;;35.86;19.99
47935;BME280;33704;43.592;-79.628;2024-02-21T00:11:40;100818.39;;;35.89;20.18
47935;BME280;33704;43.592;-79.628;2024-02-21T00:12:12;100821.09;;;35.93;19.73
47935;BME280;33704;43.592;-79.628;2024-02-21T00:12:44;100819.61;;;35.93;19.75
47935;BME280;33704;43.592;-79.628;2024-02-21T00:13:16;100820.14;;;35.89;20.10
47935;BME280;33704;43.592;-79.628;2024-02-21T00:13:48;100820.54;;;35.90;19.93
47935;BME280;33704;43.592;-79.628;2024-02-21T00:14:20;100820.81;;;35.92;19.81
47935;BME280;33704;43.592;-79.628;2024-02-21T00:14:52;100821.26;;;35.92;19.98
47935;BME280;33704;43.592;-79.628;2024-02-21T00:15:24;100822.63;;;35.90;19.95
47935;BME280;33704;43.592;-79.628;2024-02-21T00:15:56;100822.72;;;35.93;19.95
47935;BME280;33704;43.592;-79.628;2024-02-21T00:16:28;100822.56;;;35.91;19.91
47935;BME280;33704;43.592;-79.628;2024-02-21T00:16:59;100823.90;;;35.92;19.90
47935;BME280;33704;43.592;-79.628;2024-02-21T00:17:32;100823.57;;;35.96;19.94
47935;BME280;33704;43.592;-79.628;2024-02-21T00:18:04;100825.55;;;36.00;19.98
47935;BME280;33704;43.592;-79.628;2024-02-21T00:18:36;100824.39;;;36.02;19.87
47935;BME280;33704;43.592;-79.628;2024-02-21T00:19:08;100823.37;;;35.95;19.82
47935;BME280;33704;43.592;-79.628;2024-02-21T00:19:39;100822.89;;;35.92;19.90
47935;BME280;33704;43.592;-79.628;2024-02-21T00:20:12;100823.22;;;35.98;19.88
47935;BME280;33704;43.592;-79.628;2024-02-21T00:20:44;100823.21;;;35.95;19.63
47935;BME280;33704;43.592;-79.628;2024-02-21T00:21:16;100823.43;;;36.01;19.53
47935;BME280;33704;43.592;-79.628;2024-02-21T00:21:48;100821.67;;;35.98;19.72
47935;BME280;33704;43.592;-79.628;2024-02-21T00:22:20;100819.35;;;36.00;19.66
47935;BME280;33704;43.592;-79.628;2024-02-21T00:22:52;100819.59;;;36.01;19.49
47935;BME280;33704;43.592;-79.628;2024-02-21T00:23:25;100820.14;;;36.03;19.46
47935;BME280;33704;43.592;-79.628;2024-02-21T00:23:56;100819.82;;;36.03;19.48
47935;BME280;33704;43.592;-79.628;2024-02-21T00:24:28;100818.69;;;36.05;19.58
47935;BME280;33704;43.592;-79.628;2024-02-21T00:25:00;100818.30;;;35.96;19.65
47935;BME280;33704;43.592;-79.628;2024-02-21T00:25:32;100818.79;;;36.03;19.59
47935;BME280;33704;43.592;-79.628;2024-02-21T00:26:04;100819.58;;;36.00;19.63
47935;BME280;33704;43.592;-79.628;2024-02-21T00:26:36;100818.24;;;36.04;19.71
47935;BME280;33704;43.592;-79.628;2024-02-21T00:27:08;100817.55;;;36.02;19.66
47935;BME280;33704;43.592;-79.628;2024-02-21T00:27:39;100818.16;;;36.06;19.47
47935;BME280;33704;43.592;-79.628;2024-02-21T00:28:12;100817.65;;;36.02;19.66
47935;BME280;33704;43.592;-79.628;2024-02-21T00:28:44;100818.62;;;36.04;19.70
47935;BME280;33704;43.592;-79.628;2024-02-21T00:29:16;100818.99;;;36.03;19.54
47935;BME280;33704;43.592;-79.628;2024-02-21T00:29:47;100818.08;;;36.05;19.57
47935;BME280;33704;43.592;-79.628;2024-02-21T00:30:20;100816.90;;;35.99;19.42
47935;BME280;33704;43.592;-79.628;2024-02-21T00:30:52;100818.06;;;35.99;19.13
47935;BME280;33704;43.592;-79.628;2024-02-21T00:31:24;100816.74;;;35.98;19.11
47935;BME280;33704;43.592;-79.628;2024-02-21T00:31:56;100815.47;;;35.92;19.14
47935;BME280;33704;43.592;-79.628;2024-02-21T00:32:28;100815.92;;;36.02;19.11
47935;BME280;33704;43.592;-79.628;2024-02-21T00:32:59;100814.75;;;35.97;19.21
47935;BME280;33704;43.592;-79.628;2024-02-21T00:33:31;100813.69;;;35.98;19.21
47935;BME280;33704;43.592;-79.628;2024-02-21T00:34:04;100814.17;;;35.97;19.00
47935;BME280;33704;43.592;-79.628;2024-02-21T00:34:36;100813.28;;;35.98;18.98
47935;BME280;33704;43.592;-79.628;2024-02-21T00:35:08;100809.92;;;35.92;19.16
47935;BME280;33704;43.592;-79.628;2024-02-21T00:35:40;100809.17;;;35.93;19.14
47935;BME280;33704;43.592;-79.628;2024-02-21T00:36:13;100806.69;;;35.95;19.13
47935;BME280;33704;43.592;-79.628;2024-02-21T00:36:45;100803.49;;;35.96;19.21
47935;BME280;33704;43.592;-79.628;2024-02-21T00:37:17;100803.30;;;36.03;19.11
47935;BME280;33704;43.592;-79.628;2024-02-21T00:37:51;100806.25;;;35.98;19.06
47935;BME280;33704;43.592;-79.628;2024-02-21T00:38:23;100803.70;;;35.94;19.18
47935;BME280;33704;43.592;-79.628;2024-02-21T00:38:55;100804.29;;;35.96;19.05
47935;BME280;33704;43.592;-79.628;2024-02-21T00:39:27;100802.87;;;36.00;18.95
47935;BME280;33704;43.592;-79.628;2024-02-21T00:39:59;100802.56;;;35.90;19.09
47935;BME280;33704;43.592;-79.628;2024-02-21T00:40:31;100801.31;;;35.91;18.85
47935;BME280;33704;43.592;-79.628;2024-02-21T00:41:04;100800.67;;;35.92;19.03
47935;BME280;33704;43.592;-79.628;2024-02-21T00:41:36;100799.41;;;35.90;18.94
47935;BME280;33704;43.592;-79.628;2024-02-21T00:42:07;100798.89;;;35.91;18.98
47935;BME280;33704;43.592;-79.628;2024-02-21T00:42:39;100798.92;;;35.91;18.96
47935;BME280;33704;43.592;-79.628;2024-02-21T00:43:11;100796.57;;;35.95;19.06
47935;BME280;33704;43.592;-79.628;2024-02-21T00:43:43;100798.47;;;35.93;18.82
47935;BME280;33704;43.592;-79.628;2024-02-21T00:44:15;100797.23;;;35.96;18.81
47935;BME280;33704;43.592;-79.628;2024-02-21T00:44:47;100797.89;;;35.95;18.90
47935;BME280;33704;43.592;-79.628;2024-02-21T00:45:18;100799.04;;;35.94;18.83
47935;BME280;33704;43.592;-79.628;2024-02-21T00:45:52;100797.99;;;35.98;18.81
47935;BME280;33704;43.592;-79.628;2024-02-21T00:46:24;100797.35;;;36.00;18.84
47935;BME280;33704;43.592;-79.628;2024-02-21T00:46:55;100794.11;;;35.94;18.89
47935;BME280;33704;43.592;-79.628;2024-02-21T00:47:27;100792.18;;;35.95;18.90
47935;BME280;33704;43.592;-79.628;2024-02-21T00:47:59;100791.45;;;35.95;19.15
47935;BME280;33704;43.592;-79.628;2024-02-21T00:48:31;100792.74;;;35.97;19.16
47935;BME280;33704;43.592;-79.628;2024-02-21T00:49:03;100790.26;;;35.93;19.06
47935;BME280;33704;43.592;-79.628;2024-02-21T00:49:35;100791.10;;;35.95;18.90
47935;BME280;33704;43.592;-79.628;2024-02-21T00:50:08;100791.20;;;35.97;18.90
47935;BME280;33704;43.592;-79.628;2024-02-21T00:50:40;100789.33;;;35.96;18.80
47935;BME280;33704;43.592;-79.628;2024-02-21T00:51:13;100792.95;;;35.99;18.93
47935;BME280;33704;43.592;-79.628;2024-02-21T00:51:45;100791.60;;;35.92;19.01
47935;BME280;33704;43.592;-79.628;2024-02-21T00:52:17;100790.21;;;35.97;18.92
47935;BME280;33704;43.592;-79.628;2024-02-21T00:52:49;100791.77;;;36.00;18.83
47935;BME280;33704;43.592;-79.628;2024-02-21T00:53:21;100790.03;;;35.98;18.73
47935;BME280;33704;43.592;-79.628;2024-02-21T00:53:53;100791.16;;;35.98;18.91
47935;BME280;33704;43.592;-79.628;2024-02-21T00:54:25;100789.40;;;35.93;19.02
47935;BME280;33704;43.592;-79.628;2024-02-21T00:54:57;100788.18;;;35.93;19.15
47935;BME280;33704;43.592;-79.628;2024-02-21T00:55:28;100787.82;;;35.94;18.98
47935;BME280;33704;43.592;-79.628;2024-02-21T00:56:03;100786.35;;;35.93;19.01
47935;BME280;33704;43.592;-79.628;2024-02-21T00:56:35;100787.13;;;35.90;19.21
47935;BME280;33704;43.592;-79.628;2024-02-21T00:57:06;100785.74;;;35.91;19.07
47935;BME280;33704;43.592;-79.628;2024-02-21T00:57:38;100787.15;;;35.89;18.91
47935;BME280;33704;43.592;-79.628;2024-02-21T00:58:11;100783.19;;;35.94;18.94
47935;BME280;33704;43.592;-79.628;2024-02-21T00:58:43;100783.52;;;35.94;19.03
47935;BME280;33704;43.592;-79.628;2024-02-21T00:59:15;100784.05;;;35.93;19.17
47935;BME280;33704;43.592;-79.628;2024-02-21T00:59:47;100780.84;;;35.96;19.11
47935;BME280;33704;43.592;-79.628;2024-02-21T01:00:20;100781.16;;;35.94;19.03
47935;BME280;33704;43.592;-79.628;2024-02-21T01:00:52;100783.67;;;35.89;19.08
47935;BME280;33704;43.592;-79.628;2024-02-21T01:01:25;100782.47;;;35.89;19.14
47935;BME280;33704;43.592;-79.628;2024-02-21T01:01:57;100783.20;;;35.88;19.15
47935;BME280;33704;43.592;-79.628;2024-02-21T01:02:29;100781.21;;;35.88;19.14
47935;BME280;33704;43.592;-79.628;2024-02-21T01:03:02;100779.33;;;35.89;19.09
47935;BME280;33704;43.592;-79.628;2024-02-21T01:03:34;100777.93;;;35.93;19.03
47935;BME280;33704;43.592;-79.628;2024-02-21T01:04:06;100775.98;;;35.95;18.93
47935;BME280;33704;43.592;-79.628;2024-02-21T01:04:38;100775.09;;;35.94;18.86
47935;BME280;33704;43.592;-79.628;2024-02-21T01:05:09;100775.67;;;35.91;18.89
47935;BME280;33704;43.592;-79.628;2024-02-21T01:05:41;100778.62;;;35.87;18.96
47935;BME280;33704;43.592;-79.628;2024-02-21T01:06:13;100775.74;;;35.88;18.95
47935;BME280;33704;43.592;-79.628;2024-02-21T01:06:45;100775.34;;;35.90;18.82
47935;BME280;33704;43.592;-79.628;2024-02-21T01:07:17;100773.24;;;35.93;18.86
47935;BME280;33704;43.592;-79.628;2024-02-21T01:07:49;100774.55;;;35.90;18.89
47935;BME280;33704;43.592;-79.628;2024-02-21T01:08:21;100774.50;;;35.93;18.69
47935;BME280;33704;43.592;-79.628;2024-02-21T01:08:53;100773.76;;;35.92;18.72
47935;BME280;33704;43.592;-79.628;2024-02-21T01:09:25;100776.71;;;35.94;18.66
47935;BME280;33704;43.592;-79.628;2024-02-21T01:09:57;100775.61;;;35.94;18.59
47935;BME280;33704;43.592;-79.628;2024-02-21T01:10:29;100776.48;;;35.96;18.64
47935;BME280;33704;43.592;-79.628;2024-02-21T01:11:06;100775.37;;;35.94;18.65
47935;BME280;33704;43.592;-79.628;2024-02-21T01:11:38;100773.65;;;35.96;18.51
47935;BME280;33704;43.592;-79.628;2024-02-21T01:12:10;100776.43;;;36.01;18.51
47935;BME280;33704;43.592;-79.628;2024-02-21T01:12:42;100776.86;;;36.02;18.46
47935;BME280;33704;43.592;-79.628;2024-02-21T01:13:14;100779.04;;;36.00;18.56
47935;BME280;33704;43.592;-79.628;2024-02-21T01:13:46;100780.17;;;35.98;18.56
47935;BME280;33704;43.592;-79.628;2024-02-21T01:14:17;100779.25;;;35.96;18.52
47935;BME280;33704;43.592;-79.628;2024-02-21T01:14:49;100779.93;;;35.97;18.55
47935;BME280;33704;43.592;-79.628;2024-02-21T01:15:21;100782.57;;;35.98;18.47
47935;BME280;33704;43.592;-79.628;2024-02-21T01:15:53;100782.11;;;35.99;18.41
47935;BME280;33704;43.592;-79.628;2024-02-21T01:16:26;100781.22;;;35.95;18.46
47935;BME280;33704;43.592;-79.628;2024-02-21T01:16:58;100781.44;;;35.93;18.51
47935;BME280;33704;43.592;-79.628;2024-02-21T01:17:30;100781.94;;;35.96;18.36
47935;BME280;33704;43.592;-79.628;2024-02-21T01:18:03;100781.54;;;35.97;18.24
47935;BME280;33704;43.592;-79.628;2024-02-21T01:18:37;100780.77;;;35.95;18.36
47935;BME280;33704;43.592;-79.628;2024-02-21T01:19:09;100781.08;;;35.94;18.63
47935;BME280;33704;43.592;-79.628;2024-02-21T01:19:41;100781.51;;;35.92;18.46
47935;BME280;33704;43.592;-79.628;2024-02-21T01:20:14;100783.97;;;35.92;18.34
47935;BME280;33704;43.592;-79.628;2024-02-21T01:20:45;100782.27;;;35.97;18.23
47935;BME280;33704;43.592;-79.628;2024-02-21T01:21:17;100782.69;;;35.94;18.17
47935;BME280;33704;43.592;-79.628;2024-02-21T01:21:49;100784.10;;;35.95;18.27
47935;BME280;33704;43.592;-79.628;2024-02-21T01:22:21;100785.89;;;35.94;18.40
47935;BME280;33704;43.592;-79.628;2024-02-21T01:22:53;100785.26;;;35.94;18.36
47935;BME280;33704;43.592;-79.628;2024-02-21T01:23:25;100783.35;;;35.95;18.32
47935;BME280;33704;43.592;-79.628;2024-02-21T01:23:57;100785.61;;;35.92;18.41
47935;BME280;33704;43.592;-79.628;2024-02-21T01:24:29;100783.32;;;35.91;18.41
47935;BME280;33704;43.592;-79.628;2024-02-21T01:25:02;100782.00;;;35.92;18.21
47935;BME280;33704;43.592;-79.628;2024-02-21T01:25:34;100783.09;;;35.89;18.14
47935;BME280;33704;43.592;-79.628;2024-02-21T01:26:06;100784.27;;;35.93;18.11
47935;BME280;33704;43.592;-79.628;2024-02-21T01:26:38;100783.28;;;35.90;18.36
47935;BME280;33704;43.592;-79.628;2024-02-21T01:27:09;100780.26;;;35.89;18.29
47935;BME280;33704;43.592;-79.628;2024-02-21T01:27:43;100785.09;;;35.88;18.23
47935;BME280;33704;43.592;-79.628;2024-02-21T01:28:15;100782.90;;;35.90;18.15
47935;BME280;33704;43.592;-79.628;2024-02-21T01:28:46;100781.78;;;35.88;18.36
47935;BME280;33704;43.592;-79.628;2024-02-21T01:29:18;100783.95;;;35.86;18.49
47935;BME280;33704;43.592;-79.628;2024-02-21T01:29:50;100783.54;;;35.82;18.49
47935;BME280;33704;43.592;-79.628;2024-02-21T01:30:22;100784.67;;;35.80;18.37
47935;BME280;33704;43.592;-79.628;2024-02-21T01:30:54;100784.67;;;35.86;18.10
47935;BME280;33704;43.592;-79.628;2024-02-21T01:31:26;100785.20;;;35.86;18.03
47935;BME280;33704;43.592;-79.628;2024-02-21T01:31:58;100784.96;;;35.84;18.28
47935;BME280;33704;43.592;-79.628;2024-02-21T01:32:30;100785.98;;;35.81;18.38
47935;BME280;33704;43.592;-79.628;2024-02-21T01:33:03;100786.85;;;35.83;18.27
47935;BME280;33704;43.592;-79.628;2024-02-21T01:33:35;100787.76;;;35.82;18.24
47935;BME280;33704;43.592;-79.628;2024-02-21T01:34:07;100786.96;;;35.82;18.34
47935;BME280;33704;43.592;-79.628;2024-02-21T01:34:39;100786.90;;;35.81;18.37
47935;BME280;33704;43.592;-79.628;2024-02-21T01:35:12;100785.43;;;35.80;18.35
47935;BME280;33704;43.592;-79.628;2024-02-21T01:35:44;100783.23;;;35.78;18.43
47935;BME280;33704;43.592;-79.628;2024-02-21T01:36:16;100785.02;;;35.77;18.41
47935;BME280;33704;43.592;-79.628;2024-02-21T01:36:48;100785.58;;;35.75;18.47
47935;BME280;33704;43.592;-79.628;2024-02-21T01:37:19;100786.00;;;35.72;18.54
47935;BME280;33704;43.592;-79.628;2024-02-21T01:37:51;100786.53;;;35.70;18.56
47935;BME280;33704;43.592;-79.628;2024-02-21T01:38:23;100788.62;;;35.72;18.45
47935;BME280;33704;43.592;-79.628;2024-02-21T01:38:55;100787.22;;;35.76;18.35
47935;BME280;33704;43.592;-79.628;2024-02-21T01:39:27;100787.95;;;35.76;18.13
47935;BME280;33704;43.592;-79.628;2024-02-21T01:39:58;100790.17;;;35.81;18.11
47935;BME280;33704;43.592;-79.628;2024-02-21T01:40:31;100792.56;;;35.74;18.20
47935;BME280;33704;43.592;-79.628;2024-02-21T01:41:04;100788.24;;;35.67;18.77
47935;BME280;33704;43.592;-79.628;2024-02-21T01:41:36;100791.27;;;35.72;18.57
47935;BME280;33704;43.592;-79.628;2024-02-21T01:42:08;100791.79;;;35.76;18.17
47935;BME280;33704;43.592;-79.628;2024-02-21T01:42:40;100792.95;;;35.72;18.57
47935;BME280;33704;43.592;-79.628;2024-02-21T01:43:20;100793.19;;;35.78;18.52
47935;BME280;33704;43.592;-79.628;2024-02-21T01:43:52;100793.68;;;35.74;18.70
47935;BME280;33704;43.592;-79.628;2024-02-21T01:44:24;100794.82;;;35.74;18.57
47935;BME280;33704;43.592;-79.628;2024-02-21T01:44:56;100792.05;;;35.75;18.52
47935;BME280;33704;43.592;-79.628;2024-02-21T01:45:28;100791.78;;;35.76;18.38
47935;BME280;33704;43.592;-79.628;2024-02-21T01:46:00;100791.25;;;35.76;18.33
47935;BME280;33704;43.592;-79.628;2024-02-21T01:46:32;100791.56;;;35.78;18.36
47935;BME280;33704;43.592;-79.628;2024-02-21T01:47:04;100789.15;;;35.77;18.29
47935;BME280;33704;43.592;-79.628;2024-02-21T01:47:37;100789.80;;;35.81;18.16
47935;BME280;33704;43.592;-79.628;2024-02-21T01:48:10;100789.20;;;35.81;18.13
47935;BME280;33704;43.592;-79.628;2024-02-21T01:48:42;100790.82;;;35.82;18.05
47935;BME280;33704;43.592;-79.628;2024-02-21T01:49:14;100790.02;;;35.84;18.03
47935;BME280;33704;43.592;-79.628;2024-02-21T01:49:46;100791.25;;;35.84;18.14
47935;BME280;33704;43.592;-79.628;2024-02-21T01:50:18;100788.48;;;35.83;18.19
47935;BME280;33704;43.592;-79.628;2024-02-21T01:50:51;100790.24;;;35.80;18.24
47935;BME280;33704;43.592;-79.628;2024-02-21T01:51:24;100788.21;;;35.83;18.22
47935;BME280;33704;43.592;-79.628;2024-02-21T01:51:56;100788.39;;;35.82;18.17
47935;BME280;33704;43.592;-79.628;2024-02-21T01:52:28;100787.54;;;35.80;18.31
47935;BME280;33704;43.592;-79.628;2024-02-21T01:53:01;100784.22;;;35.82;18.11
47935;BME280;33704;43.592;-79.628;2024-02-21T01:53:36;100784.29;;;35.83;18.19
47935;BME280;33704;43.592;-79.628;2024-02-21T01:54:10;100782.16;;;35.82;18.22
47935;BME280;33704;43.592;-79.628;2024-02-21T01:54:43;100782.06;;;35.85;18.26
47935;BME280;33704;43.592;-79.628;2024-02-21T01:55:16;100780.02;;;35.83;18.16
47935;BME280;33704;43.592;-79.628;2024-02-21T01:55:48;100780.68;;;35.81;18.24
47935;BME280;33704;43.592;-79.628;2024-02-21T01:56:20;100779.29;;;35.81;18.29
47935;BME280;33704;43.592;-79.628;2024-02-21T01:56:53;100778.83;;;35.81;18.19
47935;BME280;33704;43.592;-79.628;2024-02-21T01:57:25;100779.89;;;35.82;18.18
47935;BME280;33704;43.592;-79.628;2024-02-21T01:57:57;100777.24;;;35.80;18.29
47935;BME280;33704;43.592;-79.628;2024-02-21T01:58:29;100777.94;;;35.85;18.25
47935;BME280;33704;43.592;-79.628;2024-02-21T01:59:03;100775.79;;;35.83;18.31
47935;BME280;33704;43.592;-79.628;2024-02-21T01:59:35;100774.40;;;35.81;18.30
47935;BME280;33704;43.592;-79.628;2024-02-21T02:00:15;100775.33;;;35.79;18.31
47935;BME280;33704;43.592;-79.628;2024-02-21T02:00:48;100775.62;;;35.74;18.29
47935;BME280;33704;43.592;-79.628;2024-02-21T02:01:23;100774.60;;;35.80;18.27
47935;BME280;33704;43.592;-79.628;2024-02-21T02:01:56;100774.96;;;35.84;18.19
47935;BME280;33704;43.592;-79.628;2024-02-21T02:02:27;100772.89;;;35.83;18.27
47935;BME280;33704;43.592;-79.628;2024-02-21T02:03:00;100771.88;;;35.82;18.09
47935;BME280;33704;43.592;-79.628;2024-02-21T02:03:32;100769.85;;;35.81;18.19
47935;BME280;33704;43.592;-79.628;2024-02-21T02:04:05;100770.39;;;35.81;18.26
47935;BME280;33704;43.592;-79.628;2024-02-21T02:04:38;100768.96;;;35.82;18.19
47935;BME280;33704;43.592;-79.628;2024-02-21T02:05:11;100766.62;;;35.83;18.16
47935;BME280;33704;43.592;-79.628;2024-02-21T02:05:44;100768.38;;;35.80;18.18
47935;BME280;33704;43.592;-79.628;2024-02-21T02:06:16;100768.09;;;35.80;18.30
47935;BME280;33704;43.592;-79.628;2024-02-21T02:06:49;100770.25;;;35.81;18.30
47935;BME280;33704;43.592;-79.628;2024-02-21T02:07:22;100767.29;;;35.84;18.08
47935;BME280;33704;43.592;-79.628;2024-02-21T02:07:54;100766.60;;;35.84;18.03
47935;BME280;33704;43.592;-79.628;2024-02-21T02:08:26;100767.60;;;35.82;18.23
47935;BME280;33704;43.592;-79.628;2024-02-21T02:08:58;100767.91;;;35.81;18.23
47935;BME280;33704;43.592;-79.628;2024-02-21T02:09:30;100767.10;;;35.78;18.26
47935;BME280;33704;43.592;-79.628;2024-02-21T02:10:04;100768.19;;;35.77;18.15
47935;BME280;33704;43.592;-79.628;2024-02-21T02:10:36;100769.41;;;35.80;18.19
47935;BME280;33704;43.592;-79.628;2024-02-21T02:11:08;100766.64;;;35.80;18.15
47935;BME280;33704;43.592;-79.628;2024-02-21T02:11:42;100764.95;;;35.82;18.08
47935;BME280;33704;43.592;-79.628;2024-02-21T02:12:14;100765.08;;;35.82;18.24
47935;BME280;33704;43.592;-79.628;2024-02-21T02:12:46;100764.65;;;35.80;18.13
47935;BME280;33704;43.592;-79.628;2024-02-21T02:13:21;100765.02;;;35.78;18.25
47935;BME280;33704;43.592;-79.628;2024-02-21T02:13:53;100765.71;;;35.79;18.22
47935;BME280;33704;43.592;-79.628;2024-02-21T02:15:00;100765.28;;;35.68;18.38
47935;BME280;33704;43.592;-79.628;2024-02-21T02:15:38;100764.36;;;35.72;18.46
47935;BME280;33704;43.592;-79.628;2024-02-21T02:16:11;100766.80;;;35.75;18.35
47935;BME280;33704;43.592;-79.628;2024-02-21T02:16:46;100765.04;;;35.74;18.41
47935;BME280;33704;43.592;-79.628;2024-02-21T02:17:18;100764.83;;;35.71;18.57
47935;BME280;33704;43.592;-79.628;2024-02-21T02:17:50;100763.33;;;35.69;18.75
47935;BME280;33704;43.592;-79.628;2024-02-21T02:18:22;100761.92;;;35.64;18.87
47935;BME280;33704;43.592;-79.628;2024-02-21T02:18:55;100761.06;;;35.60;19.14
47935;BME280;33704;43.592;-79.628;2024-02-21T02:19:27;100763.31;;;35.63;19.13
47935;BME280;33704;43.592;-79.628;2024-02-21T02:19:58;100760.78;;;35.68;19.02
47935;BME280;33704;43.592;-79.628;2024-02-21T02:20:30;100761.59;;;35.71;19.09
47935;BME280;33704;43.592;-79.628;2024-02-21T02:21:06;100759.70;;;35.74;19.05
47935;BME280;33704;43.592;-79.628;2024-02-21T02:21:46;100761.41;;;35.74;18.95
47935;BME280;33704;43.592;-79.628;2024-02-21T02:22:24;100758.89;;;35.72;18.99
47935;BME280;33704;43.592;-79.628;2024-02-21T02:23:00;100759.31;;;35.76;18.90
47935;BME280;33704;43.592;-79.628;2024-02-21T02:23:36;100761.84;;;35.75;18.70
47935;BME280;33704;43.592;-79.628;2024-02-21T02:24:08;100762.69;;;35.72;18.63
47935;BME280;33704;43.592;-79.628;2024-02-21T02:24:42;100766.00;;;35.71;18.73
47935;BME280;33704;43.592;-79.628;2024-02-21T02:25:14;100766.59;;;35.69;18.64
47935;BME280;33704;43.592;-79.628;2024-02-21T02:25:46;100765.22;;;35.66;18.49
47935;BME280;33704;43.592;-79.628;2024-02-21T02:26:18;100766.12;;;35.62;18.54
47935;BME280;33704;43.592;-79.628;2024-02-21T02:26:50;100766.37;;;35.63;18.57
47935;BME280;33704;43.592;-79.628;2024-02-21T02:27:22;100763.66;;;35.57;18.57
47935;BME280;33704;43.592;-79.628;2024-02-21T02:27:54;100761.36;;;35.58;18.69
47935;BME280;33704;43.592;-79.628;2024-02-21T02:28:26;100760.17;;;35.59;18.64
47935;BME280;33704;43.592;-79.628;2024-02-21T02:28:58;100757.73;;;35.60;18.68
47935;BME280;33704;43.592;-79.628;2024-02-21T02:29:32;100758.32;;;35.58;18.69
47935;BME280;33704;43.592;-79.628;2024-02-21T02:30:06;100755.00;;;35.55;18.66
47935;BME280;33704;43.592;-79.628;2024-02-21T02:30:38;100755.98;;;35.52;18.58
47935;BME280;33704;43.592;-79.628;2024-02-21T02:31:10;100753.71;;;35.53;18.61
47935;BME280;33704;43.592;-79.628;2024-02-21T02:31:42;100751.95;;;35.53;18.66
47935;BME280;33704;43.592;-79.628;2024-02-21T02:32:14;100754.91;;;35.52;18.64
47935;BME280;33704;43.592;-79.628;2024-02-21T02:32:46;100754.50;;;35.54;18.60
47935;BME280;33704;43.592;-79.628;2024-02-21T02:33:18;100755.03;;;35.52;18.73
47935;BME280;33704;43.592;-79.628;2024-02-21T02:33:50;100754.84;;;35.54;18.63
47935;BME280;33704;43.592;-79.628;2024-02-21T02:34:22;100756.43;;;35.54;18.69
47935;BME280;33704;43.592;-79.628;2024-02-21T02:34:54;100755.01;;;35.56;18.65
47935;BME280;33704;43.592;-79.628;2024-02-21T02:35:26;100756.53;;;35.59;18.59
47935;BME280;33704;43.592;-79.628;2024-02-21T02:35:58;100758.03;;;35.55;18.67
47935;BME280;33704;43.592;-79.628;2024-02-21T02:36:32;100756.97;;;35.53;18.55
47935;BME280;33704;43.592;-79.628;2024-02-21T02:37:04;100758.98;;;35.52;18.63
47935;BME280;33704;43.592;-79.628;2024-02-21T02:37:36;100758.15;;;35.53;18.51
47935;BME280;33704;43.592;-79.628;2024-02-21T02:38:08;100758.24;;;35.54;18.52
47935;BME280;33704;43.592;-79.628;2024-02-21T02:38:40;100755.21;;;35.57;18.64
47935;BME280;33704;43.592;-79.628;2024-02-21T02:39:12;100754.22;;;35.60;18.54
47935;BME280;33704;43.592;-79.628;2024-02-21T02:39:44;100754.46;;;35.61;18.60
47935;BME280;33704;43.592;-79.628;2024-02-21T02:40:16;100751.42;;;35.61;18.69
47935;BME280;33704;43.592;-79.628;2024-02-21T02:40:48;100751.99;;;35.57;18.74
47935;BME280;33704;43.592;-79.628;2024-02-21T02:41:20;100749.14;;;35.57;18.59
47935;BME280;33704;43.592;-79.628;2024-02-21T02:41:53;100750.95;;;35.57;18.54
47935;BME280;33704;43.592;-79.628;2024-02-21T02:42:24;100747.97;;;35.57;18.57
47935;BME280;33704;43.592;-79.628;2024-02-21T02:42:56;100748.25;;;35.55;18.49
47935;BME280;33704;43.592;-79.628;2024-02-21T02:43:28;100747.37;;;35.57;18.58
47935;BME280;33704;43.592;-79.628;2024-02-21T02:44:00;100746.15;;;35.59;18.65
47935;BME280;33704;43.592;-79.628;2024-02-21T02:44:32;100746.85;;;35.56;18.73
47935;BME280;33704;43.592;-79.628;2024-02-21T02:45:05;100747.24;;;35.55;18.64
47935;BME280;33704;43.592;-79.628;2024-02-21T02:45:37;100744.70;;;35.57;18.54